Latest Weather Observations for Warra

IDT60801

Issued at 12:01 pm EST Tuesday 31 May 2016 (issued every 30 minutes, with the page automatically refreshed every 10 minutes)

About weather observations | Map of weather stations | Latest weather observations for TAS | Other Formats
Station Details ID: 097024 Name: WARRA Lat: -43.06 Lon: 146.70 Height: 495.0 m
Data from the previous 72 hours. | See also: Recent months at Warra
Date/Time
EST
Temp
°C
App
Temp
°C
Dew
Point
Rel
Hum
%
Delta-T
°C
Wind Press
QNH
hPa
Press
MSL
hPa
Rain
since 9 am
mm
Dir
 
Spd
km/h
Gust
km/h
Spd
kts
Gust
kts
31/12:00pm 6.5 4.1 4.3 86 1.0 E 6 7 3 4 - - 0.2
31/11:30am 7.4 5.0 4.4 81 1.3 NNE 6 9 3 5 - - 0.2
31/11:00am 7.3 5.1 5.1 86 1.0 N 6 11 3 6 - - 0.2
31/10:30am 6.2 3.8 5.2 93 0.5 N 7 9 4 5 - - 0.2
31/10:00am 5.4 4.4 5.4 100 0.0 CALM 0 0 0 0 - - 0.0
31/09:30am 3.2 1.7 3.2 100 0.0 CALM 0 0 0 0 - - 0.0
31/09:00am 2.2 0.6 2.2 100 0.0 CALM 0 0 0 0 - - 0.0
31/08:30am 0.7 -2.3 0.7 100 0.0 SSW 6 7 3 4 - - 0.0
31/08:00am -0.8 -4.2 -0.8 100 0.0 SSW 7 9 4 5 - - 0.0
31/07:30am -1.2 -4.1 -1.2 100 0.0 WSW 4 7 2 4 - - 0.0
31/07:00am -0.9 -3.4 -0.9 100 0.0 WNW 2 7 1 4 - - 0.0
31/06:30am -0.7 -3.9 -0.7 100 0.0 SW 6 7 3 4 - - 0.0
31/06:00am -0.9 -3.8 -0.9 100 0.0 E 4 6 2 3 - - 0.0
31/05:30am -2.3 -4.6 -2.3 100 0.0 CALM 0 0 0 0 - - 0.0
31/05:00am -2.0 -4.3 -2.0 100 0.0 CALM 0 0 0 0 - - 0.0
31/04:30am -1.9 -4.1 -1.9 100 0.0 CALM 0 0 0 0 - - 0.0
31/04:00am -2.1 -4.4 -2.1 100 0.0 CALM 0 0 0 0 - - 0.0
31/03:30am -1.7 -3.9 -1.7 100 0.0 CALM 0 0 0 0 - - 0.0
31/03:00am -2.6 -4.9 -2.6 100 0.0 CALM 0 0 0 0 - - 0.0
31/02:30am -2.3 -4.6 -2.3 100 0.0 CALM 0 2 0 1 - - 0.0
31/02:00am -2.2 -5.6 -2.2 100 0.0 W 6 9 3 5 - - 0.0
31/01:30am -2.1 -4.8 -2.1 100 0.0 NW 2 7 1 4 - - 0.0
31/01:00am -2.1 -4.4 -2.1 100 0.0 CALM 0 0 0 0 - - 0.0
31/12:30am -2.1 -5.1 -2.1 100 0.0 NW 4 7 2 4 - - 0.0
31/12:00am -2.0 -5.4 -2.0 100 0.0 NW 6 6 3 3 - - 0.0
 
Date/Time
EST
Temp
°C
App
Temp
°C
Dew
Point
Rel
Hum
%
Delta-T
°C
Wind Press
QNH
hPa
Press
MSL
hPa
Rain
since 9 am
mm
Dir
 
Spd
km/h
Gust
km/h
Spd
kts
Gust
kts
30/11:30pm -1.7 -5.1 -1.7 100 0.0 W 6 7 3 4 - - 0.0
30/11:00pm -1.9 -5.5 -1.9 100 0.0 WNW 7 9 4 5 - - 0.0
30/10:30pm -1.7 -3.9 -1.7 100 0.0 CALM 0 0 0 0 - - 0.0
30/10:00pm -1.9 -4.1 -1.9 100 0.0 CALM 0 0 0 0 - - 0.0
30/09:30pm -1.5 -4.8 -1.5 100 0.0 W 6 9 3 5 - - 0.0
30/09:00pm -1.4 -4.3 -1.4 100 0.0 WNW 4 6 2 3 - - 0.0
30/08:30pm -1.1 -4.4 -1.1 100 0.0 WNW 6 6 3 3 - - 0.0
30/08:00pm -1.1 -4.4 -1.1 100 0.0 WNW 6 7 3 4 - - 0.0
30/07:30pm -0.7 -4.1 -0.7 100 0.0 W 7 11 4 6 - - 0.0
30/07:00pm 0.5 -2.6 0.4 99 0.0 W 6 9 3 5 - - 0.0
30/06:30pm 1.2 -1.8 1.1 99 0.0 WNW 6 7 3 4 - - 0.0
30/06:00pm 1.5 -1.4 1.4 99 0.0 NW 6 9 3 5 - - 0.0
30/05:30pm 2.3 -0.8 1.4 94 0.4 NNW 7 9 4 5 - - 0.0
30/05:00pm 2.3 -0.8 1.4 94 0.4 W 7 13 4 7 - - 0.0
30/04:30pm 3.2 0.2 1.9 91 0.5 W 7 11 4 6 - - 0.0
30/04:00pm 3.9 1.8 1.9 87 0.8 SW 2 9 1 5 - - 0.0
30/03:30pm 4.8 3.2 2.5 85 1.0 CALM 0 0 0 0 - - 0.0
30/03:00pm 5.1 2.2 2.6 84 1.1 E 7 13 4 7 - - 0.0
30/02:30pm 4.8 1.8 2.3 84 1.0 NNE 7 11 4 6 - - 0.0
30/02:00pm 4.7 2.6 1.6 80 1.3 NNE 2 7 1 4 - - 0.0
30/01:30pm 4.9 2.5 1.9 81 1.2 S 4 7 2 4 - - 0.0
30/01:00pm 5.1 3.0 1.9 80 1.3 N 2 9 1 5 - - 0.0
30/12:30pm 4.9 2.1 3.1 88 0.8 N 7 11 4 6 - - 0.0
30/12:00pm 4.3 1.5 2.3 87 0.8 ESE 6 7 3 4 - - 0.0
30/11:30am 4.0 1.1 1.5 84 1.0 SE 6 9 3 5 - - 0.0
30/11:00am 4.1 1.7 2.0 86 0.9 S 4 9 2 5 - - 0.0
30/10:30am 4.0 0.7 2.5 90 0.6 WNW 9 13 5 7 - - 0.0
30/10:00am 3.6 0.7 2.6 93 0.4 W 7 11 4 6 - - 0.0
30/09:30am 3.2 0.5 2.6 96 0.2 SW 6 11 3 6 - - 0.0
30/09:00am 3.1 0.2 2.8 98 0.1 WSW 7 11 4 6 - - 0.8
30/08:30am 2.9 0.2 2.8 99 0.0 W 6 11 3 6 - - 0.8
30/08:00am 2.5 -0.2 2.4 99 0.0 W 6 7 3 4 - - 0.8
30/07:30am 2.5 -0.4 2.4 99 0.0 WSW 7 9 4 5 - - 0.8
30/07:00am 2.5 -0.5 2.2 98 0.1 WSW 7 11 4 6 - - 0.8
30/06:30am 2.6 -0.3 2.5 99 0.0 WSW 7 9 4 5 - - 0.8
30/06:00am 2.9 0.0 2.8 99 0.0 W 7 13 4 7 - - 0.8
30/05:30am 3.1 -0.1 3.0 99 0.0 WSW 9 13 5 7 - - 0.8
30/05:00am 3.1 0.3 3.1 100 0.0 SW 7 11 4 6 - - 0.8
30/04:30am 3.0 0.4 3.0 100 0.0 W 6 9 3 5 - - 0.8
30/04:00am 2.9 -0.3 2.8 99 0.0 WNW 9 11 5 6 - - 0.8
30/03:30am 3.3 0.1 3.2 99 0.0 W 9 13 5 7 - - 0.8
30/03:00am 3.8 0.7 3.8 100 0.0 WSW 9 13 5 7 - - 0.8
30/02:30am 3.8 1.1 3.8 100 0.0 WSW 7 11 4 6 - - 0.8
30/02:00am 3.9 0.9 3.9 100 0.0 WSW 9 13 5 7 - - 0.8
30/01:30am 4.1 1.1 4.1 100 0.0 W 9 11 5 6 - - 0.8
30/01:00am 4.2 1.2 4.2 100 0.0 WSW 9 11 5 6 - - 0.8
30/12:30am 4.1 1.5 4.1 100 0.0 WSW 7 13 4 7 - - 0.8
30/12:00am 4.0 1.0 4.0 100 0.0 WSW 9 13 5 7 - - 0.8
 
Date/Time
EST
Temp
°C
App
Temp
°C
Dew
Point
Rel
Hum
%
Delta-T
°C
Wind Press
QNH
hPa
Press
MSL
hPa
Rain
since 9 am
mm
Dir
 
Spd
km/h
Gust
km/h
Spd
kts
Gust
kts
29/11:30pm 3.8 0.7 3.8 100 0.0 WSW 9 13 5 7 - - 0.8
29/11:00pm 4.2 1.2 4.2 100 0.0 WSW 9 15 5 8 - - 0.8
29/10:30pm 4.3 1.3 4.3 100 0.0 WSW 9 15 5 8 - - 0.8
29/10:00pm 4.8 1.5 4.8 100 0.0 WSW 11 17 6 9 - - 0.8
29/09:30pm 4.3 1.0 4.3 100 0.0 WSW 11 17 6 9 - - 0.8
29/09:00pm 4.3 1.3 4.3 100 0.0 W 9 17 5 9 - - 0.8
29/08:30pm 4.6 1.3 4.6 100 0.0 WSW 11 19 6 10 - - 0.8
29/08:00pm 4.6 1.3 4.6 100 0.0 WSW 11 20 6 11 - - 0.8
29/07:30pm 5.0 2.2 5.0 100 0.0 WSW 9 13 5 7 - - 0.8
29/07:00pm 5.5 2.8 5.5 100 0.0 WSW 9 15 5 8 - - 0.8
29/06:30pm 5.8 3.1 5.8 100 0.0 WSW 9 15 5 8 - - 0.6
29/06:00pm 6.0 3.8 6.0 100 0.0 SW 7 11 4 6 - - 0.6
29/05:30pm 6.1 3.5 6.1 100 0.0 SW 9 15 5 8 - - 0.4
29/05:00pm 6.4 4.4 6.4 100 0.0 WSW 6 9 3 5 - - 0.4
29/04:30pm 6.7 4.2 6.7 100 0.0 SSW 9 17 5 9 - - 0.4
29/04:00pm 6.8 4.9 6.8 100 0.0 SW 6 9 3 5 - - 0.4
29/03:30pm 7.2 5.2 7.1 99 0.0 SW 7 13 4 7 - - 0.4
29/03:00pm 7.7 6.0 7.6 99 0.0 SW 6 9 3 5 - - 0.4
29/02:30pm 8.2 6.1 8.1 99 0.0 SW 9 15 5 8 - - 0.2
29/02:00pm 7.7 5.4 7.6 99 0.0 WSW 9 11 5 6 - - 0.2
29/01:30pm 7.6 5.3 7.5 99 0.0 WSW 9 15 5 8 - - 0.2
29/01:00pm 7.9 5.7 7.9 100 0.0 W 9 15 5 8 - - 0.2
29/12:30pm 7.8 5.8 7.1 95 0.3 WSW 7 13 4 7 - - 0.0
29/12:00pm 7.8 5.4 6.9 94 0.4 WSW 9 15 5 8 - - 0.0
29/11:30am 8.1 5.7 7.0 93 0.5 WSW 9 15 5 8 - - 0.0
29/11:00am 7.4 5.4 7.3 99 0.0 WSW 7 13 4 7 - - 0.0
29/10:30am 7.0 4.6 7.0 100 0.0 WSW 9 15 5 8 - - 0.0
29/10:00am 7.1 4.7 7.1 100 0.0 WSW 9 13 5 7 - - 0.0
29/09:30am 6.5 4.0 6.5 100 0.0 WSW 9 17 5 9 - - 0.0
29/09:00am 6.0 3.4 6.0 100 0.0 WSW 9 19 5 10 - - 2.4
29/08:30am 5.6 2.5 5.6 100 0.0 WSW 11 19 6 10 - - 2.4
29/08:00am 5.4 2.7 5.4 100 0.0 WSW 9 17 5 9 - - 2.4
29/07:30am 5.4 2.3 5.4 100 0.0 WSW 11 19 6 10 - - 2.4
29/07:00am 5.5 2.4 5.5 100 0.0 WSW 11 20 6 11 - - 2.4
29/06:30am 5.4 2.3 5.4 100 0.0 WSW 11 19 6 10 - - 2.4
29/06:00am 5.3 1.8 5.3 100 0.0 WSW 13 20 7 11 - - 2.4
29/05:30am 5.2 1.6 5.2 100 0.0 WSW 13 20 7 11 - - 2.4
29/05:00am 5.1 1.9 5.1 100 0.0 WSW 11 15 6 8 - - 2.2
29/04:30am 5.1 1.5 5.1 100 0.0 WSW 13 20 7 11 - - 2.2
29/04:00am 5.1 1.5 5.1 100 0.0 WSW 13 20 7 11 - - 2.0
29/03:30am 5.1 1.5 5.1 100 0.0 WSW 13 20 7 11 - - 2.0
29/03:00am 5.3 1.0 5.3 100 0.0 WSW 17 30 9 16 - - 2.0
29/02:30am 5.3 1.8 5.3 100 0.0 WSW 13 28 7 15 - - 1.8
29/02:00am 5.1 1.5 5.1 100 0.0 WSW 13 20 7 11 - - 1.4
29/01:30am 4.9 1.3 4.9 100 0.0 WSW 13 26 7 14 - - 1.2
29/01:00am 5.1 1.1 5.1 100 0.0 WSW 15 24 8 13 - - 1.2
29/12:30am 5.2 1.6 5.2 100 0.0 WSW 13 20 7 11 - - 1.2
29/12:00am 5.3 2.1 5.3 100 0.0 W 11 19 6 10 - - 1.0
 
Date/Time
EST
Temp
°C
App
Temp
°C
Dew
Point
Rel
Hum
%
Delta-T
°C
Wind Press
QNH
hPa
Press
MSL
hPa
Rain
since 9 am
mm
Dir
 
Spd
km/h
Gust
km/h
Spd
kts
Gust
kts
28/11:30pm 5.3 2.5 5.3 100 0.0 WSW 9 17 5 9 - - 0.4
28/11:00pm 5.0 1.4 5.0 100 0.0 W 13 20 7 11 - - 0.4
28/10:30pm 5.1 2.3 5.1 100 0.0 WSW 9 17 5 9 - - 0.4
28/10:00pm 5.3 2.1 5.3 100 0.0 WSW 11 19 6 10 - - 0.2
28/09:30pm 5.4 1.9 5.4 100 0.0 WSW 13 20 7 11 - - 0.2
28/09:00pm 5.4 1.9 5.4 100 0.0 WSW 13 20 7 11 - - 0.2
28/08:30pm 5.0 1.8 5.0 100 0.0 WSW 11 20 6 11 - - 0.2
28/08:00pm 4.9 1.7 4.9 100 0.0 WSW 11 20 6 11 - - 0.2
28/07:30pm 4.6 1.7 4.6 100 0.0 WSW 9 13 5 7 - - 0.2
28/07:00pm 4.5 1.2 4.5 100 0.0 WSW 11 17 6 9 - - 0.2
28/06:30pm 4.4 1.1 4.4 100 0.0 WSW 11 15 6 8 - - 0.2
28/06:00pm 4.2 0.8 4.2 100 0.0 WSW 11 17 6 9 - - 0.2
28/05:30pm 4.0 1.0 4.0 100 0.0 WSW 9 11 5 6 - - 0.2
28/05:00pm 4.4 1.8 4.3 99 0.0 WSW 7 9 4 5 - - 0.2
28/04:30pm 5.6 2.9 5.5 99 0.0 WSW 9 11 5 6 - - 0.2
28/04:00pm 6.4 4.1 5.8 96 0.3 WSW 7 11 4 6 - - 0.0
28/03:30pm 6.7 4.5 6.0 95 0.3 WSW 7 11 4 6 - - 0.0
28/03:00pm 7.1 4.8 5.9 92 0.6 WSW 7 15 4 8 - - 0.0
28/02:30pm 7.8 6.1 5.8 87 0.9 SW 4 9 2 5 - - 0.0
28/02:00pm 7.9 5.7 5.4 84 1.2 SSW 6 11 3 6 - - 0.0
28/01:30pm 7.9 6.5 5.4 84 1.2 NNW 2 9 1 5 - - 0.0
28/01:00pm 8.3 5.5 5.1 80 1.5 W 9 15 5 8 - - 0.0
28/12:30pm 8.3 5.1 5.2 81 1.4 W 11 17 6 9 - - 0.0

Other Formats:

Comma delimited format used in spreadsheet applications
http://www.bom.gov.au/fwo/IDT60801/IDT60801.95962.axf

JavaScript Object Notation format (JSON) in row-major order
http://www.bom.gov.au/fwo/IDT60801/IDT60801.95962.json